createdAt,value
2022-09-23T00:01:46.476Z,7.60
2022-09-23T00:04:35.286Z,7.70
2022-09-23T00:07:11.642Z,7.40
2022-09-23T00:09:43.816Z,7.70
2022-09-23T00:12:33.313Z,6.50
2022-09-23T00:15:10.982Z,6.90
2022-09-23T00:17:59.795Z,5.90
2022-09-23T00:20:28.874Z,6.50
2022-09-23T00:23:03.166Z,7.40
2022-09-23T00:25:57.583Z,6.60
2022-09-23T00:28:26.373Z,6.50
2022-09-23T00:31:21.858Z,5.60
2022-09-23T00:33:54.851Z,5.60
2022-09-23T00:36:45.228Z,6.90
2022-09-23T00:39:31.885Z,6.00
2022-09-23T00:42:03.572Z,6.20
2022-09-23T00:44:55.913Z,5.80
2022-09-23T00:47:41.489Z,6.20
2022-09-23T00:50:30.026Z,6.00
2022-09-23T00:53:05.426Z,6.00
2022-09-23T00:55:57.294Z,6.90
2022-09-23T00:58:33.096Z,6.50
2022-09-23T01:01:24.494Z,6.20
2022-09-23T01:03:55.304Z,6.70
2022-09-23T01:06:44.027Z,6.30
2022-09-23T01:09:33.607Z,6.00
2022-09-23T01:15:17.812Z,4.90
2022-09-23T01:18:16.663Z,7.00
2022-09-23T01:21:35.783Z,6.30
2022-09-23T01:24:37.596Z,6.10
2022-09-23T01:27:46.469Z,5.60
2022-09-23T01:30:39.842Z,6.30
2022-09-23T01:33:23.779Z,6.30
2022-09-23T01:36:23.599Z,5.00
2022-09-23T01:39:08.677Z,5.80
2022-09-23T01:42:07.001Z,6.20
2022-09-23T01:45:06.875Z,6.00
2022-09-23T01:47:42.891Z,6.20
2022-09-23T01:50:46.953Z,5.70
2022-09-23T01:53:24.076Z,5.40
2022-09-23T01:56:17.698Z,5.40
2022-09-23T01:59:04.886Z,5.60
2022-09-23T02:01:54.903Z,5.70
2022-09-23T02:04:51.558Z,5.20
2022-09-23T02:07:36.379Z,5.10
2022-09-23T02:10:30.768Z,6.10
2022-09-23T02:13:24.004Z,6.30
2022-09-23T02:16:23.678Z,5.60
2022-09-23T02:19:09.986Z,6.10
2022-09-23T02:22:06.385Z,4.80
2022-09-23T02:24:56.474Z,4.90
2022-09-23T02:27:57.399Z,5.00
2022-09-23T02:30:56.109Z,4.80
2022-09-23T02:33:54.636Z,4.60
2022-09-23T02:39:55.895Z,5.10
2022-09-23T02:42:55.641Z,5.20
2022-09-23T02:45:44.476Z,4.70
2022-09-23T02:48:40.775Z,5.30
2022-09-23T02:51:31.554Z,4.70
2022-09-23T02:54:04.947Z,5.30
2022-09-23T02:56:54.734Z,4.70
2022-09-23T02:59:46.421Z,4.80
2022-09-23T03:02:57.237Z,5.80
2022-09-23T03:05:53.908Z,5.40
2022-09-23T03:08:52.970Z,5.10
2022-09-23T03:11:49.403Z,4.90
2022-09-23T03:14:27.143Z,5.10
2022-09-23T03:20:17.556Z,5.00
2022-09-23T03:22:51.539Z,4.40
2022-09-23T03:25:34.493Z,4.90
2022-09-23T03:28:24.890Z,4.50
2022-09-23T03:31:16.677Z,4.50
2022-09-23T03:34:11.166Z,5.40
2022-09-23T03:37:07.000Z,5.00
2022-09-23T03:40:00.313Z,4.60
2022-09-23T03:42:43.075Z,4.40
2022-09-23T03:45:35.979Z,4.90
2022-09-23T03:48:06.036Z,5.30
2022-09-23T03:50:54.860Z,4.50
2022-09-23T03:53:32.338Z,5.70
2022-09-23T03:56:21.479Z,4.80
2022-09-23T03:59:10.556Z,6.20
2022-09-23T04:04:50.203Z,5.20
2022-09-23T04:07:39.614Z,6.30
2022-09-23T04:10:28.412Z,6.00
2022-09-23T04:12:57.247Z,6.00
2022-09-23T04:15:51.284Z,5.60
2022-09-23T04:18:40.348Z,5.80
2022-09-23T04:21:08.876Z,6.50
2022-09-23T04:23:57.681Z,6.30
2022-09-23T04:26:50.862Z,5.30
2022-09-23T04:29:43.106Z,5.80
2022-09-23T04:32:32.285Z,6.50
2022-09-23T04:35:22.147Z,5.70
2022-09-23T04:38:12.727Z,5.90
2022-09-23T04:41:01.808Z,5.00
2022-09-23T04:43:52.231Z,5.20
2022-09-23T04:46:24.008Z,5.90
2022-09-23T04:49:04.358Z,5.40
2022-09-23T04:51:56.087Z,4.90
2022-09-23T04:54:44.844Z,4.70
2022-09-23T05:00:26.466Z,4.60
2022-09-23T05:03:16.025Z,5.00
2022-09-23T05:06:07.269Z,5.00
2022-09-23T05:08:59.811Z,5.40
2022-09-23T05:11:52.571Z,6.40
2022-09-23T05:14:40.655Z,4.90
2022-09-23T05:17:31.045Z,4.90
2022-09-23T05:20:26.800Z,5.70
2022-09-23T05:23:11.168Z,6.30
2022-09-23T05:26:01.605Z,5.60
2022-09-23T05:28:54.183Z,5.90
2022-09-23T05:31:45.361Z,5.50
2022-09-23T05:34:34.675Z,6.20
2022-09-23T05:37:24.837Z,5.50
2022-09-23T05:40:16.974Z,5.60
2022-09-23T05:42:50.801Z,6.20
2022-09-23T05:45:39.659Z,5.60
2022-09-23T05:48:30.984Z,5.80
2022-09-23T05:51:21.878Z,6.80
2022-09-23T05:54:10.945Z,6.70
2022-09-23T05:59:53.382Z,6.00
2022-09-23T06:02:41.211Z,7.60
2022-09-23T06:05:30.572Z,6.20
2022-09-23T06:08:10.727Z,6.80
2022-09-23T06:11:07.108Z,5.80
2022-09-23T06:13:59.819Z,7.30
2022-09-23T06:16:50.665Z,6.80
2022-09-23T06:19:41.967Z,7.60
2022-09-23T06:22:24.133Z,7.80
2022-09-23T06:25:16.178Z,8.20
2022-09-23T06:28:15.785Z,5.70
2022-09-23T06:31:12.819Z,9.00
2022-09-23T06:34:10.475Z,8.40
2022-09-23T06:37:10.555Z,7.80
2022-09-23T06:39:54.717Z,9.60
2022-09-23T06:45:31.539Z,10.10
2022-09-23T06:48:25.238Z,9.30
2022-09-23T06:51:18.738Z,9.80
2022-09-23T06:54:08.525Z,10.10
2022-09-23T06:56:57.448Z,9.10
2022-09-23T07:02:31.612Z,7.90
2022-09-23T07:05:03.724Z,8.40
2022-09-23T07:07:53.775Z,9.40
2022-09-23T07:10:42.787Z,9.70
2022-09-23T07:13:41.600Z,9.40
2022-09-23T07:16:33.363Z,8.60
2022-09-23T07:19:02.564Z,9.60
2022-09-23T07:21:53.966Z,10.50
2022-09-23T07:24:23.794Z,9.20
2022-09-23T07:27:06.828Z,15.20
2022-09-23T07:29:55.764Z,8.90
2022-09-23T07:32:48.768Z,9.90
2022-09-23T07:35:41.595Z,10.30
2022-09-23T07:38:11.395Z,7.50
2022-09-23T07:41:04.901Z,8.20
2022-09-23T07:43:33.568Z,7.60
2022-09-23T07:46:23.121Z,7.60
2022-09-23T07:49:14.043Z,8.50
2022-09-23T07:52:04.577Z,7.00
2022-09-23T07:54:53.994Z,8.50
2022-09-23T07:57:34.173Z,7.90
2022-09-23T08:00:14.976Z,7.90
2022-09-23T08:02:56.306Z,8.90
2022-09-23T08:05:38.291Z,9.60
2022-09-23T08:08:28.550Z,10.10
2022-09-23T08:11:19.726Z,10.20
2022-09-23T08:14:08.855Z,13.40
2022-09-23T08:16:59.660Z,12.50
2022-09-23T08:19:49.919Z,11.70
2022-09-23T08:22:39.234Z,11.80
2022-09-23T08:25:32.192Z,12.40
2022-09-23T08:28:22.987Z,12.30
2022-09-23T08:31:13.052Z,13.00
2022-09-23T08:33:55.702Z,11.30
2022-09-23T08:36:36.256Z,8.40
2022-09-23T08:39:14.095Z,10.80
2022-09-23T08:42:17.242Z,7.30
2022-09-23T08:44:50.924Z,7.40
2022-09-23T08:47:26.906Z,7.20
2022-09-23T08:50:05.218Z,7.60
2022-09-23T08:52:52.925Z,8.60
2022-09-23T08:55:28.227Z,6.50
2022-09-23T08:58:25.603Z,7.70
2022-09-23T09:01:07.014Z,7.20
2022-09-23T09:03:51.440Z,6.90
2022-09-23T09:06:26.581Z,8.20
2022-09-23T09:09:00.980Z,9.40
2022-09-23T09:11:48.539Z,7.60
2022-09-23T09:14:36.030Z,5.30
2022-09-23T09:17:24.257Z,4.90
2022-09-23T09:20:08.101Z,7.30
2022-09-23T09:23:00.071Z,7.90
2022-09-23T09:25:45.737Z,7.90
2022-09-23T09:28:24.029Z,7.00
2022-09-23T09:31:28.967Z,6.40
2022-09-23T09:34:19.965Z,5.10
2022-09-23T09:37:15.481Z,4.60
2022-09-23T09:39:44.394Z,3.60
2022-09-23T09:42:20.684Z,3.30
2022-09-23T09:44:58.216Z,3.20
2022-09-23T09:47:56.268Z,3.60
2022-09-23T09:50:48.788Z,2.90
2022-09-23T09:53:37.602Z,2.70
2022-09-23T09:56:33.228Z,2.60
2022-09-23T09:59:28.152Z,2.90
2022-09-23T10:02:26.473Z,3.00
2022-09-23T10:05:31.850Z,3.10
2022-09-23T10:08:27.770Z,3.20
2022-09-23T10:11:03.034Z,2.70
2022-09-23T10:13:32.712Z,2.60
2022-09-23T10:16:22.584Z,2.00
2022-09-23T10:19:17.327Z,2.00
2022-09-23T10:22:18.992Z,2.10
2022-09-23T10:25:15.800Z,2.40
2022-09-23T10:27:47.696Z,1.40
2022-09-23T10:30:38.082Z,0.70
2022-09-23T10:33:27.571Z,0.60
2022-09-23T10:36:18.034Z,0.70
2022-09-23T10:39:27.812Z,0.60
2022-09-23T10:42:51.223Z,0.80
2022-09-23T10:46:04.035Z,0.70
2022-09-23T10:49:02.416Z,0.70
2022-09-23T10:52:06.141Z,0.50
2022-09-23T10:54:49.542Z,0.80
2022-09-23T10:57:54.164Z,0.60
2022-09-23T11:00:52.891Z,0.70
2022-09-23T11:03:59.606Z,0.60
2022-09-23T11:07:07.596Z,0.60
2022-09-23T11:10:35.245Z,0.40
2022-09-23T11:13:54.628Z,0.60
2022-09-23T11:17:03.792Z,0.60
2022-09-23T11:20:09.525Z,0.50
2022-09-23T11:23:29.814Z,0.50
2022-09-23T11:26:33.589Z,0.50
2022-09-23T11:29:24.615Z,0.50
2022-09-23T11:32:29.917Z,0.60
2022-09-23T11:35:20.082Z,0.60
2022-09-23T11:38:14.910Z,0.60
2022-09-23T11:41:13.924Z,0.50
2022-09-23T11:47:03.353Z,0.50
2022-09-23T11:49:49.720Z,0.50
2022-09-23T11:52:28.973Z,0.60
2022-09-23T11:55:14.429Z,0.60
2022-09-23T11:58:04.247Z,0.50
2022-09-23T12:01:01.434Z,0.60
2022-09-23T12:03:51.653Z,0.70
2022-09-23T12:06:46.926Z,0.70
2022-09-23T12:09:58.955Z,0.50
2022-09-23T12:12:59.394Z,0.50
2022-09-23T12:15:56.436Z,0.50
2022-09-23T12:18:56.996Z,0.50
2022-09-23T12:22:12.285Z,0.50
2022-09-23T12:25:18.009Z,0.50
2022-09-23T12:27:50.867Z,0.40
2022-09-23T12:30:46.495Z,0.50
2022-09-23T12:33:27.940Z,0.50
2022-09-23T12:36:09.048Z,0.50
2022-09-23T12:38:46.556Z,0.60
2022-09-23T12:41:38.627Z,0.50
2022-09-23T12:44:36.241Z,0.40
2022-09-23T12:47:40.933Z,0.50
2022-09-23T12:50:54.340Z,0.50
2022-09-23T12:53:58.376Z,0.40
2022-09-23T12:57:01.674Z,0.50
2022-09-23T13:00:14.463Z,0.50
2022-09-23T13:03:22.077Z,0.50
2022-09-23T13:06:20.853Z,0.50
2022-09-23T13:09:15.741Z,0.50
2022-09-23T13:11:58.389Z,0.40
2022-09-23T13:14:53.979Z,0.50
2022-09-23T13:17:34.181Z,0.40
2022-09-23T13:20:37.848Z,0.50
2022-09-23T13:23:28.059Z,0.40
2022-09-23T13:26:18.637Z,0.60
2022-09-23T13:29:16.331Z,0.60
2022-09-23T13:32:11.183Z,0.50
2022-09-23T13:35:03.757Z,0.60
2022-09-23T13:37:57.837Z,0.40
2022-09-23T13:40:48.979Z,0.60
2022-09-23T13:43:42.106Z,0.50
2022-09-23T13:46:40.296Z,0.60
2022-09-23T13:49:34.795Z,0.50
2022-09-23T13:55:38.213Z,0.50
2022-09-23T13:58:18.963Z,0.70
2022-09-23T14:01:10.423Z,0.50
2022-09-23T14:04:00.537Z,0.40
2022-09-23T14:06:49.845Z,0.40
2022-09-23T14:09:43.532Z,0.50
2022-09-23T14:12:32.495Z,0.50
2022-09-23T14:15:22.638Z,0.50
2022-09-23T14:18:05.752Z,0.60
2022-09-23T14:20:56.262Z,0.70
2022-09-23T14:23:45.842Z,0.60
2022-09-23T14:26:26.805Z,0.50
2022-09-23T14:29:19.724Z,0.50
2022-09-23T14:32:17.582Z,0.70
2022-09-23T14:35:19.765Z,0.60
2022-09-23T14:38:30.634Z,0.70
2022-09-23T14:41:25.174Z,0.70
2022-09-23T14:44:22.486Z,0.90
2022-09-23T14:47:01.349Z,1.00
2022-09-23T14:50:07.478Z,0.90
2022-09-23T14:52:56.265Z,0.60
2022-09-23T14:55:46.648Z,0.40
2022-09-23T14:58:28.104Z,0.40
2022-09-23T15:01:41.554Z,0.60
2022-09-23T15:04:35.034Z,0.70
2022-09-23T15:07:23.989Z,0.60
2022-09-23T15:10:23.015Z,0.70
2022-09-23T15:13:05.279Z,1.30
2022-09-23T15:15:59.508Z,0.70
2022-09-23T15:18:40.648Z,0.70
2022-09-23T15:21:40.463Z,0.70
2022-09-23T15:24:42.621Z,0.80
2022-09-23T15:27:30.318Z,0.90
2022-09-23T15:30:19.117Z,0.60
2022-09-23T15:32:59.853Z,0.60
2022-09-23T15:35:53.307Z,0.90
2022-09-23T15:38:43.676Z,0.90
2022-09-23T15:41:16.739Z,1.00
2022-09-23T15:44:16.926Z,1.00
2022-09-23T15:47:18.568Z,1.20
2022-09-23T15:49:54.160Z,1.80
2022-09-23T15:52:44.492Z,1.60
2022-09-23T15:55:36.521Z,1.30
2022-09-23T15:58:27.191Z,1.20
2022-09-23T16:01:23.876Z,0.90
2022-09-23T16:04:13.752Z,1.10
2022-09-23T16:06:47.770Z,0.90
2022-09-23T16:09:17.678Z,1.10
2022-09-23T16:12:11.719Z,1.20
2022-09-23T16:15:02.109Z,1.40
2022-09-23T16:17:54.906Z,1.20
2022-09-23T16:20:46.939Z,1.00
2022-09-23T16:23:41.356Z,1.30
2022-09-23T16:26:32.551Z,1.20
2022-09-23T16:29:21.590Z,1.50
2022-09-23T16:32:17.834Z,1.50
2022-09-23T16:35:01.812Z,0.90
2022-09-23T16:37:38.181Z,2.10
2022-09-23T16:40:10.363Z,1.50
2022-09-23T16:43:01.628Z,1.80
2022-09-23T16:45:30.616Z,1.70
2022-09-23T16:48:03.161Z,1.50
2022-09-23T16:50:33.055Z,1.40
2022-09-23T16:53:22.530Z,1.60
2022-09-23T16:56:12.659Z,2.00
2022-09-23T16:59:01.422Z,2.30
2022-09-23T17:04:57.059Z,4.80
2022-09-23T17:07:25.860Z,4.40
2022-09-23T17:10:18.007Z,4.10
2022-09-23T17:13:08.195Z,4.80
2022-09-23T17:15:57.268Z,3.80
2022-09-23T17:18:27.053Z,4.20
2022-09-23T17:21:15.963Z,4.40
2022-09-23T17:23:47.359Z,4.00
2022-09-23T17:26:16.967Z,4.00
2022-09-23T17:28:45.594Z,4.00
2022-09-23T17:31:24.300Z,4.40
2022-09-23T17:34:13.498Z,6.30
2022-09-23T17:37:02.548Z,8.40
2022-09-23T17:39:41.908Z,9.20
2022-09-23T17:42:31.555Z,9.00
2022-09-23T17:45:02.306Z,6.90
2022-09-23T17:47:56.038Z,7.30
2022-09-23T17:50:34.671Z,10.10
2022-09-23T17:53:20.315Z,8.60
2022-09-23T17:56:14.618Z,8.00
2022-09-23T17:59:11.486Z,8.10
2022-09-23T18:01:49.354Z,8.10
2022-09-23T18:04:38.479Z,7.50
2022-09-23T18:07:27.654Z,8.10
2022-09-23T18:10:16.885Z,7.50
2022-09-23T18:12:48.505Z,8.40
2022-09-23T18:15:28.634Z,7.20
2022-09-23T18:17:57.432Z,9.40
2022-09-23T18:20:28.946Z,9.00
2022-09-23T18:22:57.548Z,8.00
2022-09-23T18:25:46.850Z,7.30
2022-09-23T18:28:15.260Z,7.20
2022-09-23T18:31:03.151Z,8.00
2022-09-23T18:33:44.737Z,7.80
2022-09-23T18:36:13.906Z,7.70
2022-09-23T18:38:42.995Z,8.80
2022-09-23T18:41:36.148Z,8.60
2022-09-23T18:44:22.886Z,7.80
2022-09-23T18:47:33.319Z,9.70
2022-09-23T18:50:29.426Z,8.30
2022-09-23T18:53:20.803Z,8.80
2022-09-23T18:56:07.815Z,8.60
2022-09-23T18:58:37.144Z,9.50
2022-09-23T19:01:27.367Z,10.70
2022-09-23T19:04:21.467Z,10.00
2022-09-23T19:07:17.157Z,11.00
2022-09-23T19:10:20.701Z,9.80
2022-09-23T19:13:07.449Z,10.00
2022-09-23T19:16:07.697Z,9.30
2022-09-23T19:18:58.727Z,9.60
2022-09-23T19:21:54.667Z,6.80
2022-09-23T19:24:46.539Z,8.10
2022-09-23T19:27:36.020Z,7.40
2022-09-23T19:30:15.537Z,7.90
2022-09-23T19:33:05.722Z,7.10
2022-09-23T19:35:58.146Z,8.10
2022-09-23T19:38:38.884Z,9.20
2022-09-23T19:41:32.959Z,10.10
2022-09-23T19:44:25.749Z,10.10
2022-09-23T19:47:17.015Z,9.50
2022-09-23T19:50:10.488Z,9.90
2022-09-23T19:52:39.106Z,9.20
2022-09-23T19:58:00.305Z,8.00
2022-09-23T20:00:29.839Z,8.70
2022-09-23T20:02:59.264Z,12.00
2022-09-23T20:05:56.678Z,12.00
2022-09-23T20:08:32.471Z,11.50
2022-09-23T20:11:09.715Z,9.90
2022-09-23T20:13:39.907Z,9.60
2022-09-23T20:16:13.764Z,7.80
2022-09-23T20:18:49.328Z,9.10
2022-09-23T20:21:25.414Z,9.30
2022-09-23T20:23:57.473Z,9.90
2022-09-23T20:26:49.644Z,11.10
2022-09-23T20:29:32.028Z,11.40
2022-09-23T20:32:01.641Z,11.30
2022-09-23T20:34:52.107Z,11.50
2022-09-23T20:37:41.897Z,10.20
2022-09-23T20:40:22.531Z,9.30
2022-09-23T20:42:51.731Z,9.10
2022-09-23T20:45:21.338Z,8.70
2022-09-23T20:47:55.320Z,9.80
2022-09-23T20:50:23.918Z,9.30
2022-09-23T20:52:55.913Z,8.60
2022-09-23T20:55:29.418Z,9.30
2022-09-23T20:58:28.636Z,9.50
2022-09-23T21:01:11.185Z,9.90
2022-09-23T21:03:55.380Z,8.70
2022-09-23T21:06:25.716Z,9.50
2022-09-23T21:08:56.805Z,10.10
2022-09-23T21:11:50.170Z,9.20
2022-09-23T21:14:22.056Z,9.80
2022-09-23T21:16:54.953Z,9.80
2022-09-23T21:19:44.135Z,10.50
2022-09-23T21:22:15.418Z,9.70
2022-09-23T21:27:54.565Z,10.60
2022-09-23T21:30:38.059Z,12.30
2022-09-23T21:33:08.658Z,10.50
2022-09-23T21:36:03.782Z,11.80
2022-09-23T21:38:36.802Z,10.60
2022-09-23T21:41:25.650Z,11.90
2022-09-23T21:44:14.609Z,10.80
2022-09-23T21:46:51.546Z,11.90
2022-09-23T21:49:41.632Z,12.30
2022-09-23T21:52:34.375Z,11.90
2022-09-23T21:55:27.842Z,10.90
2022-09-23T21:57:58.906Z,11.00
2022-09-23T22:00:27.451Z,12.40
2022-09-23T22:02:57.335Z,12.10
2022-09-23T22:05:26.820Z,11.90
2022-09-23T22:07:58.802Z,12.30
2022-09-23T22:10:50.395Z,11.60
2022-09-23T22:13:39.281Z,11.00
2022-09-23T22:21:53.120Z,10.80
2022-09-23T22:24:44.470Z,10.50
2022-09-23T22:27:57.206Z,12.10
2022-09-23T22:31:04.051Z,13.40
2022-09-23T22:33:52.983Z,11.60
2022-09-23T22:36:41.858Z,12.70
2022-09-23T22:39:31.328Z,15.80
2022-09-23T22:42:13.051Z,17.80
2022-09-23T22:45:03.475Z,19.20
2022-09-23T22:47:39.118Z,20.30
2022-09-23T22:50:13.440Z,19.70
2022-09-23T22:52:52.070Z,20.30
2022-09-23T22:55:42.180Z,17.80
2022-09-23T22:58:33.030Z,17.20
2022-09-23T23:01:23.219Z,18.40
2022-09-23T23:04:03.409Z,18.50
2022-09-23T23:06:52.516Z,18.20
2022-09-23T23:09:42.159Z,18.30
2022-09-23T23:12:16.324Z,17.30
2022-09-23T23:14:49.553Z,18.00
2022-09-23T23:17:32.945Z,17.20
2022-09-23T23:20:11.611Z,17.60
2022-09-23T23:22:40.512Z,16.60
2022-09-23T23:25:20.559Z,15.70
2022-09-23T23:27:49.491Z,15.20
2022-09-23T23:33:26.469Z,12.70
2022-09-23T23:36:08.154Z,15.00
2022-09-23T23:38:43.485Z,14.90
2022-09-23T23:41:29.482Z,14.40
2022-09-23T23:44:00.100Z,13.90
2022-09-23T23:46:41.277Z,15.00
2022-09-23T23:49:30.564Z,14.80
2022-09-23T23:51:59.343Z,15.10
2022-09-23T23:54:27.930Z,14.00
2022-09-23T23:57:17.924Z,13.40
